Time;durP1;ratioP1;P1;durP2;ratioP2;P2;SDS_P1;SDS_P2;PMS_P1;PMS_P2;Temp;Humidity;BMP_temperature;BMP_pressure;BME280_temperature;BME280_humidity;BME280_pressure;Samples;Min_cycle;Max_cycle;Signal;HPM_P1;HPM_P2
2023/04/18 00:01:17;;;;;;;0.10;0.10;;;;;;;10.63;64.96;102841.22;5094518;28;20036;-85
2023/04/18 00:03:44;;;;;;;0.10;0.10;;;;;;;10.62;64.92;102839.44;5093111;28;20451;-85
2023/04/18 00:06:12;;;;;;;0.45;0.45;;;;;;;10.60;64.86;102841.16;5093966;28;20020;-85
2023/04/18 00:08:39;;;;;;;0.28;0.28;;;;;;;10.58;65.89;102842.94;5091387;28;20059;-85
2023/04/18 00:11:05;;;;;;;0.10;0.10;;;;;;;10.58;65.52;102839.38;5093682;28;20028;-85
2023/04/18 00:13:31;;;;;;;0.10;0.10;;;;;;;10.58;65.27;102834.97;5086927;28;20471;-85
2023/04/18 00:15:57;;;;;;;0.10;0.10;;;;;;;10.58;65.34;102840.28;5085541;28;20074;-85
2023/04/18 00:18:25;;;;;;;0.10;0.10;;;;;;;10.55;65.07;102836.69;5093826;28;20492;-85
2023/04/18 00:20:52;;;;;;;0.10;0.10;;;;;;;10.54;65.53;102838.44;5091841;28;20042;-85
2023/04/18 00:23:20;;;;;;;0.20;0.20;;;;;;;10.52;65.20;102840.19;5094300;28;20028;-85
2023/04/18 00:25:47;;;;;;;0.10;0.10;;;;;;;10.51;64.83;102841.06;5095076;28;20016;-85
2023/04/18 00:28:13;;;;;;;0.88;0.88;;;;;;;10.49;65.02;102842.78;5093805;28;20079;-85
2023/04/18 00:30:39;;;;;;;0.10;0.10;;;;;;;10.46;65.04;102833.06;5092164;28;20024;-85
2023/04/18 00:33:05;;;;;;;0.17;0.17;;;;;;;10.45;65.34;102846.28;5085912;28;20033;-85
2023/04/18 00:35:31;;;;;;;0.10;0.10;;;;;;;10.42;64.97;102840.94;5087946;28;20032;-85
2023/04/18 00:37:58;;;;;;;0.10;0.10;;;;;;;10.35;65.60;102840.84;5093620;28;20032;-85
2023/04/18 00:40:24;;;;;;;0.10;0.10;;;;;;;10.32;65.17;102837.28;5092943;28;20039;-85
2023/04/18 00:42:50;;;;;;;0.20;0.20;;;;;;;10.30;65.26;102834.56;5090388;28;20414;-85
2023/04/18 00:45:16;;;;;;;0.20;0.20;;;;;;;10.29;65.34;102839.88;5094939;28;20131;-85
2023/04/18 00:47:42;;;;;;;0.15;0.15;;;;;;;10.24;65.31;102831.84;5089924;28;20032;-85
2023/04/18 00:50:09;;;;;;;0.10;0.10;;;;;;;10.19;64.94;102822.94;5092580;28;20028;-85
2023/04/18 00:52:36;;;;;;;0.50;0.50;;;;;;;10.16;65.02;102831.75;5090873;28;20039;-85
2023/04/18 00:55:06;;;;;;;0.10;0.10;;;;;;;10.14;64.93;102828.22;5091191;28;20024;-85
2023/04/18 00:57:33;;;;;;;0.20;0.20;;;;;;;10.12;64.79;102827.28;5085341;28;20036;-85
2023/04/18 01:00:01;;;;;;;0.10;0.10;;;;;;;10.10;64.69;102825.50;5089782;28;20028;-85
2023/04/18 01:02:29;;;;;;;0.22;0.22;;;;;;;10.05;65.16;102825.41;5082311;28;20129;-85
2023/04/18 01:04:57;;;;;;;0.10;0.10;;;;;;;10.01;64.40;102826.25;5086996;28;20036;-85
2023/04/18 01:07:25;;;;;;;0.10;0.10;;;;;;;9.96;64.48;102826.19;5085954;28;20031;-85
2023/04/18 01:09:52;;;;;;;0.10;0.10;;;;;;;9.94;64.58;102825.25;5091680;28;20036;-85
2023/04/18 01:12:18;;;;;;;0.10;0.10;;;;;;;9.91;64.44;102821.69;5102579;28;20023;-85
2023/04/18 01:14:44;;;;;;;0.10;0.10;;;;;;;9.88;64.39;102819.88;5100298;28;20553;-85
2023/04/18 01:17:12;;;;;;;0.20;0.20;;;;;;;9.85;64.29;102822.47;5093941;28;20016;-85
2023/04/18 01:19:38;;;;;;;0.10;0.10;;;;;;;9.80;64.50;102818.88;5089432;28;20036;-85
2023/04/18 01:22:05;;;;;;;0.10;0.10;;;;;;;9.74;64.15;102810.84;5084011;28;20028;-86
2023/04/18 01:24:32;;;;;;;0.10;0.10;;;;;;;9.68;64.26;102815.19;5092642;28;20024;-85
2023/04/18 01:27:00;;;;;;;0.20;0.20;;;;;;;9.65;63.93;102814.25;5095760;28;20112;-85
2023/04/18 01:29:26;;;;;;;0.20;0.20;;;;;;;9.63;64.05;102818.63;5086955;28;20031;-85
2023/04/18 01:31:52;;;;;;;0.20;0.20;;;;;;;9.59;64.59;102814.16;5093249;28;20487;-85
2023/04/18 01:34:18;;;;;;;0.10;0.10;;;;;;;9.56;64.17;102820.28;5088881;28;20036;-85
2023/04/18 01:36:45;;;;;;;0.10;0.10;;;;;;;9.52;63.96;102810.50;5089376;28;20114;-85
2023/04/18 01:39:12;;;;;;;1.13;1.13;;;;;;;9.49;63.99;102813.09;5095291;28;20059;-85
2023/04/18 01:41:38;;;;;;;0.10;0.10;;;;;;;9.44;63.88;102812.16;5092784;28;20024;-85
2023/04/18 01:44:04;;;;;;;0.10;0.10;;;;;;;9.39;63.82;102807.69;5094167;28;20031;-85
2023/04/18 01:46:30;;;;;;;3.50;1.85;;;;;;;9.35;63.72;102812.88;5088742;28;20032;-85
2023/04/18 01:48:57;;;;;;;0.20;0.20;;;;;;;9.31;64.13;102813.66;5096814;28;20111;-85
2023/04/18 01:51:25;;;;;;;0.30;0.30;;;;;;;9.26;64.23;102818.00;5088363;28;20024;-85
2023/04/18 01:53:51;;;;;;;0.10;0.10;;;;;;;9.21;64.12;102817.94;5090079;28;20035;-85
2023/04/18 01:56:17;;;;;;;0.10;0.10;;;;;;;9.17;63.57;102819.63;5090413;28;20032;-85
2023/04/18 01:58:43;;;;;;;0.10;0.10;;;;;;;9.13;64.07;102819.56;5090212;28;20032;-85
2023/04/18 02:01:09;;;;;;;0.10;0.10;;;;;;;9.10;63.94;102822.13;5093494;28;20114;-85
2023/04/18 02:03:35;;;;;;;0.40;0.40;;;;;;;9.04;63.91;102815.88;5092022;28;20067;-85
2023/04/18 02:06:03;;;;;;;0.10;0.10;;;;;;;9.04;63.87;102815.00;5092527;28;20120;-85
2023/04/18 02:08:31;;;;;;;0.10;0.10;;;;;;;9.01;63.87;102814.91;5094250;28;20115;-85
2023/04/18 02:10:59;;;;;;;0.57;0.57;;;;;;;8.99;63.75;102809.59;5093992;28;20052;-85
2023/04/18 02:13:26;;;;;;;0.30;0.30;;;;;;;8.97;63.33;102805.16;5098620;28;20024;-85
2023/04/18 02:15:52;;;;;;;0.10;0.10;;;;;;;8.92;62.94;102812.13;5075352;28;20040;-85
2023/04/18 02:18:18;;;;;;;0.10;0.10;;;;;;;8.88;63.29;102814.72;5093441;28;20418;-85
2023/04/18 02:20:44;;;;;;;0.20;0.20;;;;;;;8.86;63.21;102812.88;5089634;28;20438;-85
2023/04/18 02:23:10;;;;;;;2.33;1.98;;;;;;;8.82;63.36;102805.75;5092888;28;20034;-85
2023/04/18 02:25:36;;;;;;;0.30;0.30;;;;;;;8.80;62.76;102810.13;5094147;28;20020;-85
2023/04/18 02:28:03;;;;;;;5.15;2.05;;;;;;;8.78;62.66;102812.75;5098581;28;20091;-85
2023/04/18 02:30:29;;;;;;;0.10;0.10;;;;;;;8.75;63.21;102807.41;5094616;28;20028;-85
2023/04/18 02:32:55;;;;;;;0.10;0.10;;;;;;;8.73;62.67;102804.75;5107127;28;20078;-85
2023/04/18 02:35:23;;;;;;;1.48;0.68;;;;;;;8.72;62.43;102802.06;5094452;28;20032;-85
2023/04/18 02:37:49;;;;;;;0.10;0.10;;;;;;;8.70;62.73;102809.09;5090446;28;20028;-85
2023/04/18 02:40:15;;;;;;;0.10;0.10;;;;;;;8.69;62.56;102808.16;5092146;28;20043;-85
2023/04/18 02:42:41;;;;;;;0.20;0.20;;;;;;;8.67;62.50;102809.00;5091997;28;20020;-86
2023/04/18 02:45:08;;;;;;;0.10;0.10;;;;;;;8.67;62.54;102802.00;5091790;28;20393;-85
2023/04/18 02:47:34;;;;;;;0.10;0.10;;;;;;;8.65;62.30;102800.16;5089181;28;20042;-85
2023/04/18 02:50:02;;;;;;;0.10;0.10;;;;;;;8.64;62.69;102809.84;5093521;28;20016;-86
2023/04/18 02:52:29;;;;;;;0.10;0.10;;;;;;;8.63;63.00;102801.88;5091416;28;20040;-85
2023/04/18 02:54:55;;;;;;;2.55;1.88;;;;;;;8.63;62.66;102807.16;5095799;28;20032;-85
2023/04/18 02:57:21;;;;;;;0.10;0.10;;;;;;;8.63;63.05;102810.69;5095926;28;20123;-85
2023/04/18 02:59:47;;;;;;;0.13;0.13;;;;;;;8.62;62.34;102808.03;5094955;28;20478;-85
2023/04/18 03:02:13;;;;;;;0.40;0.40;;;;;;;8.57;62.14;102810.56;5104220;28;20020;-85
2023/04/18 03:04:39;;;;;;;0.10;0.10;;;;;;;8.55;62.53;102807.03;5103178;28;20479;-86
2023/04/18 03:07:05;;;;;;;0.10;0.10;;;;;;;8.53;62.74;102808.72;5095879;28;20028;-85
2023/04/18 03:09:31;;;;;;;0.10;0.10;;;;;;;8.50;62.32;102811.31;5095909;28;20038;-85
2023/04/18 03:11:57;;;;;;;0.10;0.10;;;;;;;8.48;62.41;102807.75;5091454;28;20031;-85
2023/04/18 03:14:23;;;;;;;0.10;0.10;;;;;;;8.48;62.11;102807.75;5086812;28;20490;-85
2023/04/18 03:16:50;;;;;;;0.10;0.10;;;;;;;8.48;62.62;102815.69;5091131;28;20039;-85
2023/04/18 03:19:16;;;;;;;0.10;0.10;;;;;;;8.46;61.98;102810.38;5091461;28;20035;-85
2023/04/18 03:21:42;;;;;;;0.10;0.10;;;;;;;8.47;62.52;102813.91;5092984;28;20028;-85
2023/04/18 03:24:08;;;;;;;0.10;0.10;;;;;;;8.46;62.03;102813.00;5089856;28;20119;-85
2023/04/18 03:26:34;;;;;;;0.10;0.10;;;;;;;8.50;62.08;102816.59;5091013;28;20368;-85
2023/04/18 03:29:01;;;;;;;0.35;0.35;;;;;;;8.55;62.61;102812.31;5091837;28;20062;-85
2023/04/18 03:31:29;;;;;;;0.17;0.17;;;;;;;8.62;62.14;102821.25;5092995;28;20023;-85
2023/04/18 03:33:55;;;;;;;0.10;0.10;;;;;;;8.67;62.34;102817.84;5093880;28;20027;-85
2023/04/18 03:36:24;;;;;;;0.10;0.10;;;;;;;8.73;61.85;102815.31;5093403;28;20032;-85
2023/04/18 03:38:50;;;;;;;0.10;0.10;;;;;;;8.82;61.76;102817.25;5094218;28;20027;-85
2023/04/18 03:41:16;;;;;;;0.20;0.20;;;;;;;8.83;61.72;102813.72;5095689;28;20028;-85
2023/04/18 03:43:42;;;;;;;1.08;0.50;;;;;;;8.91;61.38;102816.53;5095511;28;20024;-85
2023/04/18 03:46:08;;;;;;;0.10;0.10;;;;;;;8.95;61.31;102813.06;5098678;28;20119;-85
2023/04/18 03:48:36;;;;;;;0.20;0.20;;;;;;;8.97;61.17;102819.28;5097138;28;20035;-85
2023/04/18 03:51:02;;;;;;;0.30;0.30;;;;;;;8.98;61.82;102813.09;5092584;28;20070;-85
2023/04/18 03:53:28;;;;;;;0.10;0.10;;;;;;;8.95;61.51;102817.44;5093645;28;20106;-85
2023/04/18 03:55:54;;;;;;;1.25;1.02;;;;;;;8.90;61.39;102823.56;5094056;28;20031;-85
2023/04/18 03:58:22;;;;;;;0.10;0.10;;;;;;;8.80;60.83;102823.34;5095112;28;20024;-85
2023/04/18 04:00:49;;;;;;;0.10;0.10;;;;;;;8.80;60.80;102823.34;5094403;28;20047;-85
2023/04/18 04:03:15;;;;;;;0.13;0.13;;;;;;;8.76;60.95;102818.88;5094689;28;20377;-86
2023/04/18 04:05:42;;;;;;;0.20;0.20;;;;;;;8.73;60.64;102831.19;5093879;28;20040;-85
2023/04/18 04:08:08;;;;;;;0.20;0.20;;;;;;;8.77;60.94;102834.75;5094248;28;20052;-85
2023/04/18 04:10:34;;;;;;;0.10;0.10;;;;;;;8.79;61.25;102832.16;5093696;28;20552;-85
2023/04/18 04:13:00;;;;;;;0.10;0.10;;;;;;;8.81;61.37;102833.06;5091601;28;20024;-85
2023/04/18 04:15:27;;;;;;;0.10;0.10;;;;;;;8.80;60.73;102821.59;5092050;28;20059;-85
2023/04/18 04:17:53;;;;;;;0.10;0.10;;;;;;;8.76;60.49;102824.16;5090617;28;20036;-85
2023/04/18 04:20:23;;;;;;;0.10;0.10;;;;;;;8.72;61.14;102824.09;5088305;28;20039;-85
2023/04/18 04:22:51;;;;;;;0.22;0.22;;;;;;;8.68;60.69;102822.25;5090021;28;20089;-85
2023/04/18 04:25:18;;;;;;;0.38;0.38;;;;;;;8.63;61.39;102823.91;5093582;28;20031;-85
2023/04/18 04:27:44;;;;;;;0.68;0.68;;;;;;;8.53;60.92;102827.22;5090874;28;20039;-85
2023/04/18 04:30:10;;;;;;;0.10;0.10;;;;;;;8.51;61.16;102824.56;5097230;28;20024;-85
2023/04/18 04:32:37;;;;;;;0.17;0.17;;;;;;;8.49;61.13;102822.75;5097189;28;20510;-84
2023/04/18 04:35:04;;;;;;;0.10;0.10;;;;;;;8.46;61.47;102823.59;5091142;28;20032;-85
2023/04/18 04:37:32;;;;;;;0.10;0.10;;;;;;;8.41;60.82;102823.44;5092095;28;20710;-85
2023/04/18 04:39:59;;;;;;;0.10;0.10;;;;;;;8.36;60.86;102819.81;5094546;28;20035;-85
2023/04/18 04:42:27;;;;;;;0.95;0.95;;;;;;;8.34;60.83;102826.81;5091854;28;20458;-85
2023/04/18 04:44:53;;;;;;;0.10;0.10;;;;;;;8.32;60.88;102831.16;5092484;28;20036;-85
2023/04/18 04:47:19;;;;;;;0.17;0.17;;;;;;;8.30;61.12;102830.25;5094579;28;20028;-85
2023/04/18 04:49:45;;;;;;;0.20;0.20;;;;;;;8.26;60.75;102837.22;5092564;28;20036;-85
2023/04/18 04:52:11;;;;;;;0.10;0.10;;;;;;;8.21;61.22;102835.31;5088936;28;20053;-86
2023/04/18 04:54:37;;;;;;;0.45;0.45;;;;;;;8.18;61.33;102832.63;5069960;28;20039;-85
2023/04/18 04:57:04;;;;;;;0.10;0.10;;;;;;;8.18;61.21;102832.63;5095701;28;20024;-86
2023/04/18 04:59:30;;;;;;;0.10;0.10;;;;;;;8.21;61.14;102835.31;5086271;28;20028;-85
2023/04/18 05:01:56;;;;;;;0.10;0.10;;;;;;;8.25;61.43;102831.91;5095677;28;20094;-85
2023/04/18 05:04:23;;;;;;;0.40;0.40;;;;;;;8.31;61.14;102842.59;5093298;28;20024;-85
2023/04/18 05:06:49;;;;;;;0.10;0.10;;;;;;;8.40;61.05;102837.50;5095713;28;20036;-85
2023/04/18 05:09:15;;;;;;;0.10;0.10;;;;;;;8.48;61.23;102839.47;5095774;28;20032;-85
2023/04/18 05:11:41;;;;;;;0.10;0.10;;;;;;;8.57;61.14;102834.34;5093188;28;20043;-85
2023/04/18 05:14:07;;;;;;;0.00;0.00;;;;;;;8.65;60.54;102837.13;5095386;28;20084;-85
2023/04/18 05:16:34;;;;;;;0.10;0.10;;;;;;;8.73;60.76;102838.19;5097712;28;20127;-85
2023/04/18 05:19:00;;;;;;;0.10;0.10;;;;;;;8.82;61.04;102841.03;5089957;28;20039;-85
2023/04/18 05:21:27;;;;;;;0.10;0.10;;;;;;;8.87;60.71;102842.00;5082445;28;20024;-85
2023/04/18 05:23:53;;;;;;;0.10;0.10;;;;;;;8.96;60.68;102841.28;5082203;28;20498;-85
2023/04/18 05:26:19;;;;;;;0.20;0.20;;;;;;;9.04;60.57;102850.25;5083603;28;20104;-85
2023/04/18 05:28:46;;;;;;;0.10;0.10;;;;;;;9.12;60.81;102849.50;5089600;28;20032;-86
2023/04/18 05:31:12;;;;;;;0.10;0.10;;;;;;;9.18;60.24;102849.59;5081673;28;20024;-85
2023/04/18 05:33:38;;;;;;;1.30;1.27;;;;;;;9.23;60.58;102847.94;5089832;28;20102;-85
2023/04/18 05:36:05;;;;;;;0.20;0.20;;;;;;;9.27;60.55;102855.09;5085087;28;20107;-85
2023/04/18 05:38:31;;;;;;;0.10;0.10;;;;;;;9.34;60.19;102861.38;5087036;28;20031;-85
2023/04/18 05:40:59;;;;;;;0.10;0.10;;;;;;;9.41;60.61;102852.69;5088981;28;20444;-85
2023/04/18 05:43:25;;;;;;;0.52;0.35;;;;;;;9.50;60.70;102852.81;5097100;28;20445;-85
2023/04/18 05:45:51;;;;;;;0.13;0.13;;;;;;;9.52;60.07;102852.84;5090959;28;20478;-85
2023/04/18 05:48:18;;;;;;;0.15;0.15;;;;;;;9.58;60.27;102858.22;5094113;28;20031;-85
2023/04/18 05:50:44;;;;;;;0.45;0.45;;;;;;;9.63;59.95;102859.22;5090975;28;20051;-85
2023/04/18 05:53:10;;;;;;;1.17;1.17;;;;;;;9.68;59.99;102856.63;5092976;28;20024;-85
2023/04/18 05:55:39;;;;;;;0.10;0.10;;;;;;;9.74;60.31;102861.16;5096088;28;20047;-85
2023/04/18 05:58:05;;;;;;;1.38;1.27;;;;;;;9.71;60.19;102857.56;5083175;28;20074;-86
2023/04/18 06:00:31;;;;;;;0.10;0.10;;;;;;;9.74;60.10;102858.50;5096613;28;20028;-85
2023/04/18 06:02:57;;;;;;;0.43;0.43;;;;;;;9.75;59.79;102862.94;5097904;28;20044;-85
2023/04/18 06:05:23;;;;;;;0.20;0.20;;;;;;;9.75;59.33;102868.22;5092734;28;20069;-86
2023/04/18 06:07:49;;;;;;;4.72;2.25;;;;;;;9.81;59.79;102869.19;5083693;28;20060;-87
2023/04/18 06:10:15;;;;;;;0.10;0.10;;;;;;;9.78;59.24;102868.25;5085924;28;20044;-86
2023/04/18 06:12:42;;;;;;;0.85;0.85;;;;;;;9.82;59.53;102868.34;5089954;28;20486;-86
2023/04/18 06:15:09;;;;;;;0.13;0.13;;;;;;;9.79;59.72;102862.97;5090290;28;20027;-86
2023/04/18 06:17:35;;;;;;;0.30;0.30;;;;;;;9.82;59.63;102870.06;5091846;28;20119;-86
2023/04/18 06:20:02;;;;;;;0.82;0.82;;;;;;;9.85;59.76;102872.78;5089578;28;20020;-85
2023/04/18 06:22:28;;;;;;;0.10;0.10;;;;;;;9.83;59.73;102872.78;5091558;28;20020;-86
2023/04/18 06:24:54;;;;;;;0.65;0.65;;;;;;;9.91;59.82;102874.66;5090309;28;20028;-88
2023/04/18 06:27:20;;;;;;;1.27;1.17;;;;;;;9.94;59.74;102879.97;5090549;28;20032;-87
2023/04/18 06:29:46;;;;;;;0.40;0.40;;;;;;;10.02;59.67;102878.34;5102002;28;20016;-86
2023/04/18 06:32:13;;;;;;;0.40;0.40;;;;;;;10.02;59.57;102868.63;5095664;28;20043;-86
2023/04/18 06:34:39;;;;;;;0.10;0.10;;;;;;;10.07;59.84;102875.75;5105185;28;20494;-89
2023/04/18 06:37:05;;;;;;;0.17;0.17;;;;;;;10.16;59.48;102873.25;5094422;28;20028;-86
2023/04/18 06:39:32;;;;;;;0.55;0.55;;;;;;;10.27;59.90;102874.28;5096797;28;20020;-86
2023/04/18 06:41:58;;;;;;;0.63;0.57;;;;;;;10.34;59.58;102865.56;5089385;28;20329;-87
2023/04/18 06:44:31;;;;;;;3.28;3.03;;;;;;;10.38;59.29;102876.22;5096633;28;20028;-87
2023/04/18 06:46:57;;;;;;;1.73;1.63;;;;;;;10.48;58.99;102878.13;5097261;28;20028;-85
2023/04/18 06:49:24;;;;;;;2.55;0.85;;;;;;;10.58;59.02;102879.13;5096010;28;20046;-87
2023/04/18 06:51:50;;;;;;;0.40;0.40;;;;;;;10.66;58.80;102870.41;5093324;28;20692;-86
2023/04/18 06:54:16;;;;;;;0.10;0.10;;;;;;;10.77;58.92;102869.66;5086865;28;20675;-85
2023/04/18 06:56:42;;;;;;;0.17;0.17;;;;;;;10.84;58.96;102866.19;5089950;28;20048;-86
2023/04/18 06:59:08;;;;;;;0.10;0.10;;;;;;;10.91;58.79;102878.66;5094492;28;20283;-85
2023/04/18 07:01:41;;;;;;;0.10;0.10;;;;;;;10.99;58.30;102876.06;5093095;28;20107;-86
2023/04/18 07:04:07;;;;;;;0.73;0.73;;;;;;;11.07;58.59;102873.53;5083899;28;20051;-86
2023/04/18 07:06:36;;;;;;;1.20;1.20;;;;;;;11.12;57.97;102874.47;5085398;28;20025;-86
2023/04/18 07:09:02;;;;;;;0.10;0.10;;;;;;;11.14;58.42;102875.34;5092724;28;20052;-86
2023/04/18 07:11:28;;;;;;;0.13;0.13;;;;;;;11.18;58.13;102871.88;5090633;28;20056;-86
2023/04/18 07:13:54;;;;;;;0.13;0.13;;;;;;;11.27;57.92;102876.38;5094028;28;20077;-87
2023/04/18 07:16:21;;;;;;;0.20;0.20;;;;;;;11.33;57.60;102873.78;5096187;28;20024;-87
2023/04/18 07:18:47;;;;;;;0.40;0.40;;;;;;;11.45;57.73;102875.66;5091622;28;20032;-87
2023/04/18 07:21:13;;;;;;;0.50;0.50;;;;;;;11.52;57.92;102877.50;5093271;28;20536;-86
2023/04/18 07:23:39;;;;;;;2.50;2.38;;;;;;;11.57;57.07;102881.06;5091746;28;20035;-87
2023/04/18 07:26:05;;;;;;;0.30;0.30;;;;;;;11.70;57.22;102870.56;5092604;28;20024;-87
2023/04/18 07:28:32;;;;;;;0.93;0.93;;;;;;;11.77;56.74;102875.03;5093991;28;20023;-87
2023/04/18 07:30:58;;;;;;;0.10;0.10;;;;;;;11.85;56.32;102869.78;5094656;28;20066;-86
2023/04/18 07:33:24;;;;;;;0.10;0.10;;;;;;;12.01;56.90;102866.38;5093696;28;20482;-86
2023/04/18 07:35:51;;;;;;;0.10;0.10;;;;;;;12.06;56.74;102861.09;5093427;28;20403;-87
2023/04/18 07:38:18;;;;;;;0.10;0.10;;;;;;;12.11;55.88;102872.63;5090757;28;20027;-87
2023/04/18 07:40:54;;;;;;;0.15;0.15;;;;;;;12.12;55.89;102869.09;5088848;28;20028;-87
2023/04/18 07:43:20;;;;;;;0.10;0.10;;;;;;;12.20;55.81;102872.72;5086790;28;20020;-87
2023/04/18 07:45:46;;;;;;;0.10;0.10;;;;;;;12.19;55.53;102868.28;5092952;28;20024;-87
2023/04/18 07:48:13;;;;;;;1.70;1.08;;;;;;;12.20;55.65;102875.38;5087640;28;20024;-87
2023/04/18 07:50:39;;;;;;;0.90;0.90;;;;;;;12.21;55.26;102869.19;5086608;28;20123;-87
2023/04/18 07:53:07;;;;;;;3.83;1.88;;;;;;;12.22;55.03;102870.94;5090170;28;20076;-87
2023/04/18 07:55:33;;;;;;;0.17;0.17;;;;;;;12.23;55.59;102877.16;5082141;28;20099;-87
2023/04/18 07:57:59;;;;;;;0.52;0.52;;;;;;;12.25;55.32;102865.66;5091815;28;20031;-87
2023/04/18 08:00:31;;;;;;;0.45;0.45;;;;;;;12.27;56.13;102874.53;5091651;28;20055;-88
2023/04/18 08:02:57;;;;;;;0.20;0.20;;;;;;;12.22;55.87;102870.94;5090513;28;20028;-86
2023/04/18 08:05:26;;;;;;;0.15;0.15;;;;;;;12.34;56.29;102874.56;5094669;28;20089;-85
2023/04/18 08:07:52;;;;;;;0.20;0.20;;;;;;;12.39;55.52;102867.50;5090153;28;20024;-86
2023/04/18 08:10:18;;;;;;;0.20;0.20;;;;;;;12.48;55.58;102872.84;5106994;28;20020;-87
2023/04/18 08:12:45;;;;;;;0.60;0.60;;;;;;;12.51;54.83;102875.53;5108565;28;20036;-85
2023/04/18 08:15:11;;;;;;;0.20;0.20;;;;;;;12.56;55.40;102879.09;5109623;28;20027;-88
2023/04/18 08:17:37;;;;;;;0.52;0.52;;;;;;;12.65;55.02;102867.59;5112282;28;20042;-85
2023/04/18 08:20:07;;;;;;;0.10;0.10;;;;;;;12.71;54.89;102867.63;5105615;28;20117;-86
2023/04/18 08:22:33;;;;;;;0.30;0.30;;;;;;;12.86;55.24;102864.13;5095242;28;20032;-86
2023/04/18 08:25:00;;;;;;;0.20;0.20;;;;;;;13.02;55.04;102864.16;5103174;28;20059;-86
2023/04/18 08:27:27;;;;;;;0.38;0.38;;;;;;;13.11;54.18;102869.50;5094680;28;20024;-86
2023/04/18 08:29:53;;;;;;;0.15;0.15;;;;;;;13.24;54.76;102870.41;5098005;28;20119;-87
2023/04/18 08:32:19;;;;;;;0.10;0.10;;;;;;;13.39;54.18;102864.25;5099351;28;20099;-87
2023/04/18 08:34:45;;;;;;;0.60;0.60;;;;;;;13.55;54.64;102866.00;5096173;28;20064;-86
2023/04/18 08:37:11;;;;;;;0.10;0.10;;;;;;;13.72;54.25;102859.78;5097275;28;20024;-86
2023/04/18 08:39:37;;;;;;;0.10;0.10;;;;;;;13.85;53.83;102871.34;5088676;28;20035;-86
2023/04/18 08:42:06;;;;;;;2.10;0.77;;;;;;;13.94;52.08;102859.78;5096748;28;20574;-86
2023/04/18 08:44:33;;;;;;;0.25;0.25;;;;;;;13.95;52.72;102864.22;5089638;28;20081;-86
2023/04/18 08:47:01;;;;;;;0.38;0.38;;;;;;;13.96;52.00;102863.34;5093580;28;20032;-86
2023/04/18 08:49:27;;;;;;;0.13;0.13;;;;;;;13.94;51.76;102865.09;5097155;28;20028;-88
2023/04/18 08:51:53;;;;;;;0.28;0.28;;;;;;;14.02;51.93;102855.34;5091987;28;20146;-87
2023/04/18 08:54:21;;;;;;;0.55;0.55;;;;;;;14.06;51.44;102857.09;5094643;28;20063;-87
2023/04/18 08:57:02;;;;;;;0.10;0.10;;;;;;;14.16;52.31;102858.84;5088662;28;20029;-86
2023/04/18 08:59:29;;;;;;;0.20;0.20;;;;;;;14.30;51.80;102860.56;5083092;28;20471;-87
2023/04/18 09:01:57;;;;;;;0.10;0.10;;;;;;;14.34;51.57;102854.34;5090844;28;20039;-87
2023/04/18 09:04:43;;;;;;;0.20;0.20;;;;;;;14.55;51.08;102859.59;5094187;28;20024;-86
2023/04/18 09:07:12;;;;;;;1.20;1.10;;;;;;;14.50;50.51;102858.72;5089774;28;20035;-86
2023/04/18 09:09:50;;;;;;;0.30;0.30;;;;;;;14.65;50.14;102851.56;5092689;28;20023;-88
2023/04/18 09:12:22;;;;;;;0.32;0.32;;;;;;;14.68;50.38;102856.91;5089267;28;20093;-86
2023/04/18 09:14:50;;;;;;;0.75;0.75;;;;;;;14.77;51.06;102863.97;5095245;28;20034;-87
2023/04/18 09:17:32;;;;;;;0.30;0.30;;;;;;;14.88;50.15;102849.66;5094469;28;20027;-87
2023/04/18 09:19:59;;;;;;;;;;;;;;;14.97;49.83;102847.84;5094775;28;20397;-87
2023/04/18 09:22:26;;;;;;;0.10;0.10;;;;;;;14.78;50.04;102850.63;5088966;28;20009;-87
2023/04/18 09:24:56;;;;;;;0.10;0.10;;;;;;;14.84;50.53;102847.91;5092105;28;20020;-86
2023/04/18 09:27:23;;;;;;;0.15;0.15;;;;;;;14.82;49.75;102839.03;5093814;28;20023;-86
2023/04/18 09:29:51;;;;;;;0.20;0.20;;;;;;;14.88;49.84;102847.00;5088940;28;20034;-86
2023/04/18 09:32:32;;;;;;;0.10;0.10;;;;;;;14.96;50.01;102851.41;5092368;28;20032;-87
2023/04/18 09:35:00;;;;;;;0.10;0.10;;;;;;;14.93;49.97;102838.97;5094255;28;20090;-87
2023/04/18 09:37:27;;;;;;;0.10;0.10;;;;;;;15.06;49.86;102850.44;5092695;28;20036;-86
2023/04/18 09:39:54;;;;;;;0.05;0.05;;;;;;;15.16;49.58;102838.78;5093508;28;20436;-87
2023/04/18 09:42:21;;;;;;;0.40;0.38;;;;;;;15.37;50.55;102842.22;5094128;28;20065;-86
2023/04/18 09:45:07;;;;;;;0.20;0.20;;;;;;;15.59;48.36;102837.56;5086895;28;20080;-87
2023/04/18 09:47:35;;;;;;;0.10;0.10;;;;;;;15.68;48.12;102828.59;5088888;28;20033;-88
2023/04/18 09:50:03;;;;;;;0.10;0.10;;;;;;;15.75;47.73;102835.66;5093856;28;20032;-86
2023/04/18 09:52:34;;;;;;;0.10;0.10;;;;;;;15.84;48.61;102830.22;5092247;28;20032;-89
2023/04/18 09:55:04;;;;;;;0.10;0.10;;;;;;;15.92;48.74;102831.94;5086580;28;20554;-89
2023/04/18 09:57:31;;;;;;;0.10;0.10;;;;;;;15.99;48.65;102828.31;5098511;28;20020;-86
2023/04/18 10:00:09;;;;;;;0.13;0.13;;;;;;;16.09;47.60;102831.75;5091826;28;20035;-86
2023/04/18 10:02:56;;;;;;;0.32;0.32;;;;;;;16.20;47.80;102834.28;5090796;28;20395;-87
2023/04/18 10:05:25;;;;;;;0.28;0.28;;;;;;;16.11;46.99;102829.94;5086417;28;20414;-86
2023/04/18 10:07:53;;;;;;;0.52;0.52;;;;;;;16.00;46.11;102827.41;5092419;28;20055;-86
2023/04/18 10:10:20;;;;;;;0.20;0.20;;;;;;;15.94;46.86;102822.13;5086234;28;20416;-86
2023/04/18 10:12:49;;;;;;;0.32;0.32;;;;;;;15.83;48.09;102830.25;5092603;28;20418;-86
2023/04/18 10:15:16;;;;;;;0.17;0.17;;;;;;;15.71;48.46;102833.00;5091219;28;20406;-86
2023/04/18 10:17:45;;;;;;;0.20;0.20;;;;;;;15.82;48.65;102834.69;5090539;28;20477;-87
2023/04/18 10:20:18;;;;;;;0.10;0.10;;;;;;;15.86;47.29;102819.50;5090158;28;20482;-86
2023/04/18 10:22:46;;;;;;;0.10;0.10;;;;;;;15.88;47.82;102822.19;5096892;28;20112;-86
2023/04/18 10:25:12;;;;;;;0.10;0.10;;;;;;;15.95;48.01;102814.09;5093008;28;20111;-86
2023/04/18 10:39:18;;;;;;;0.38;0.38;;;;;;;16.62;47.05;102810.56;5106391;27;20934;-88
2023/04/18 10:41:49;;;;;;;0.10;0.10;;;;;;;16.64;46.73;102819.47;5093202;28;20090;-87
2023/04/18 10:44:17;;;;;;;0.10;0.10;;;;;;;16.65;46.38;102802.50;5078789;28;20914;-87
2023/04/18 10:49:54;;;;;;;0.20;0.20;;;;;;;16.50;46.21;102799.13;5122854;27;20398;-87
2023/04/18 10:52:20;;;;;;;0.10;0.10;;;;;;;16.39;46.41;102805.56;5097795;28;20025;-87
2023/04/18 10:54:53;;;;;;;0.10;0.10;;;;;;;16.31;46.27;102797.59;5100843;28;20108;-87
2023/04/18 10:57:19;;;;;;;0.10;0.10;;;;;;;16.27;46.71;102803.91;5101260;28;20368;-87
2023/04/18 10:59:51;;;;;;;0.00;0.00;;;;;;;16.36;46.76;102806.44;5091439;28;20028;-87
2023/04/18 11:02:28;;;;;;;0.10;0.10;;;;;;;16.32;46.33;102804.72;5088605;28;20067;-87
2023/04/18 11:19:22;;;;;;;0.10;0.10;;;;;;;16.54;46.32;102796.44;4983403;28;20447;-87
2023/04/18 11:21:50;;;;;;;0.10;0.10;;;;;;;16.58;45.98;102793.66;4974818;28;20440;-88
2023/04/18 11:24:35;;;;;;;0.15;0.15;;;;;;;16.74;45.78;102797.00;4990445;28;20374;-87
2023/04/18 11:27:10;;;;;;;1.25;1.10;;;;;;;16.79;44.97;102799.63;5005122;28;20024;-87
2023/04/18 11:30:00;;;;;;;0.20;0.20;;;;;;;16.89;45.83;102808.41;4977417;28;20041;-88
2023/04/18 11:32:35;;;;;;;0.20;0.20;;;;;;;16.81;45.56;102806.72;4977488;28;20034;-88
2023/04/18 11:36:10;;;;;;;;;;;;;;;;;;;;;
2023/04/18 11:38:47;;;;;;;0.15;0.15;;;;;;;16.76;46.30;102803.25;4943169;28;20480;-88
2023/04/18 11:41:14;;;;;;;0.10;0.10;;;;;;;16.90;46.30;102792.31;4978884;28;20034;-86
2023/04/18 11:43:43;;;;;;;0.10;0.10;;;;;;;17.06;46.88;102797.44;4978373;28;20031;-86
2023/04/18 11:46:10;;;;;;;0.22;0.22;;;;;;;17.12;45.43;102798.25;4972826;28;20023;-84
2023/04/18 11:48:39;;;;;;;0.20;0.20;;;;;;;17.20;45.13;102799.94;4972915;28;20070;-85
2023/04/18 11:51:07;;;;;;;0.15;0.15;;;;;;;17.11;44.42;102798.28;5020031;28;20350;-85
2023/04/18 11:53:35;;;;;;;0.60;0.28;;;;;;;17.05;45.51;102807.28;4984615;28;20035;-84
2023/04/18 11:56:05;;;;;;;0.10;0.10;;;;;;;17.03;45.33;102803.75;4989795;28;20032;-85
2023/04/18 11:58:34;;;;;;;0.60;0.60;;;;;;;17.09;45.38;102806.31;4978763;28;20025;-84
2023/04/18 12:01:16;;;;;;;0.30;0.30;;;;;;;17.18;44.81;102791.03;4982080;28;20089;-85
2023/04/18 12:03:44;;;;;;;0.40;0.40;;;;;;;17.41;45.16;102796.88;4976185;28;20050;-85